createdAt,value
2017-07-10T00:01:43.960Z,17.7
2017-07-10T00:11:59.176Z,17.4
2017-07-10T00:22:14.091Z,17.2
2017-07-10T00:32:29.262Z,17.2
2017-07-10T00:42:43.350Z,17.3
2017-07-10T00:52:57.850Z,17.5
2017-07-10T01:03:12.782Z,17.6
2017-07-10T01:13:27.588Z,17.4
2017-07-10T01:23:41.507Z,17.5
2017-07-10T01:33:55.352Z,17.5
2017-07-10T01:44:09.694Z,17.4
2017-07-10T01:54:25.252Z,17.4
2017-07-10T02:04:39.052Z,17
2017-07-10T02:14:53.869Z,16.9
2017-07-10T02:25:07.929Z,16.7
2017-07-10T02:35:22.485Z,16.8
2017-07-10T02:45:36.650Z,17
2017-07-10T02:55:50.647Z,16.8
2017-07-10T03:06:06.587Z,16.8
2017-07-10T03:16:20.355Z,16.9
2017-07-10T03:26:35.763Z,16.7
2017-07-10T03:36:51.154Z,16.7
2017-07-10T03:47:06.282Z,16.4
2017-07-10T03:57:21.447Z,16.7
2017-07-10T04:07:35.209Z,16.9
2017-07-10T04:17:49.850Z,17
2017-07-10T04:28:05.422Z,17.2
2017-07-10T04:38:20.650Z,17.2
2017-07-10T04:48:35.771Z,17.3
2017-07-10T04:58:49.604Z,17.5
2017-07-10T05:09:04.732Z,17.5
2017-07-10T05:19:19.013Z,17.5
2017-07-10T05:29:33.829Z,17.4
2017-07-10T05:39:48.637Z,17.2
2017-07-10T05:50:03.717Z,17.4
2017-07-10T06:00:17.583Z,17.6
2017-07-10T06:10:31.890Z,17.7
2017-07-10T06:20:47.345Z,17.6
2017-07-10T06:31:02.992Z,17.6
2017-07-10T06:41:17.938Z,17.7
2017-07-10T06:51:33.711Z,17.7
2017-07-10T07:01:48.819Z,18.1
2017-07-10T07:12:04.036Z,18.2
2017-07-10T07:22:19.532Z,18.1
2017-07-10T07:32:34.712Z,18.4
2017-07-10T07:42:49.582Z,18.4
2017-07-10T07:53:04.348Z,18.5
2017-07-10T08:03:18.884Z,18.7
2017-07-10T08:13:33.672Z,18.8
2017-07-10T08:23:47.963Z,18.9
2017-07-10T08:34:03.061Z,19
2017-07-10T08:44:17.411Z,19.3
2017-07-10T08:54:32.612Z,19.4
2017-07-10T09:04:47.517Z,19.6
2017-07-10T09:15:01.774Z,20.4
2017-07-10T09:25:17.305Z,20.7
2017-07-10T09:35:32.604Z,20.3
2017-07-10T09:45:47.727Z,20.8
2017-07-10T09:56:03.464Z,21.8
2017-07-10T10:06:18.916Z,22.9
2017-07-10T10:16:33.266Z,24.6
2017-07-10T10:26:48.136Z,25.2
2017-07-10T10:37:03.931Z,24.4
2017-07-10T10:47:18.540Z,24.4
2017-07-10T10:57:33.355Z,24.3
2017-07-10T11:07:48.295Z,25
2017-07-10T11:18:02.438Z,24.7
2017-07-10T11:28:16.952Z,25.9
2017-07-10T11:38:32.074Z,25.6
2017-07-10T11:48:47.883Z,25.8
2017-07-10T11:59:02.903Z,25.3
2017-07-10T12:09:17.947Z,25
2017-07-10T12:19:33.629Z,26
2017-07-10T12:29:48.224Z,28
2017-07-10T12:40:03.159Z,28.5
2017-07-10T12:50:17.954Z,27.2
2017-07-10T13:00:32.485Z,25.9
2017-07-10T13:10:48.043Z,24.9
2017-07-10T13:21:03.104Z,22.4
2017-07-10T13:31:18.409Z,23.8
2017-07-10T13:41:32.781Z,25.1
2017-07-10T13:51:47.233Z,27
2017-07-10T14:02:02.045Z,27
2017-07-10T14:12:16.563Z,25.9
2017-07-10T14:22:31.608Z,27.9
2017-07-10T14:32:47.377Z,28.8
2017-07-10T14:43:01.643Z,26.9
2017-07-10T14:53:16.425Z,27.9
2017-07-10T15:03:30.427Z,27.5
2017-07-10T15:13:44.890Z,27.3
2017-07-10T15:23:59.431Z,26.8
2017-07-10T15:34:14.783Z,26.1
2017-07-10T15:44:29.820Z,25.1
2017-07-10T15:54:44.126Z,24.9
2017-07-10T16:04:59.296Z,26
2017-07-10T16:15:14.937Z,26.3
2017-07-10T16:25:29.990Z,26.7
2017-07-10T16:35:45.841Z,25.3
2017-07-10T16:46:01.360Z,24.5
2017-07-10T16:56:16.981Z,23.1
2017-07-10T17:06:31.753Z,22.7
2017-07-10T17:16:47.551Z,22.6
2017-07-10T17:27:01.903Z,22.3
2017-07-10T17:37:16.752Z,22.3
2017-07-10T17:47:31.868Z,21.4
2017-07-10T17:57:47.377Z,20.9
2017-07-10T18:08:03.215Z,20.6
2017-07-10T18:18:18.716Z,20.4
2017-07-10T18:28:33.384Z,20.3
2017-07-10T18:38:49.151Z,20.2
2017-07-10T18:49:04.029Z,20
2017-07-10T18:59:19.068Z,19.9
2017-07-10T19:09:33.166Z,19.7
2017-07-10T19:19:47.164Z,19.8
2017-07-10T19:30:01.644Z,19.5
2017-07-10T19:40:16.504Z,19.4
2017-07-10T19:50:31.359Z,19.3
2017-07-10T20:00:45.276Z,19.4
2017-07-10T20:11:00.058Z,19.4
2017-07-10T20:21:14.626Z,19.2
2017-07-10T20:31:29.916Z,18.9
2017-07-10T20:41:43.953Z,18.6
2017-07-10T20:51:58.226Z,18.5
2017-07-10T21:02:12.034Z,18.4
2017-07-10T21:12:25.900Z,18.4
2017-07-10T21:22:41.643Z,18.4
2017-07-10T21:32:55.991Z,18.3
2017-07-10T21:43:10.058Z,18.2
2017-07-10T21:53:24.757Z,18.2
2017-07-10T22:03:38.710Z,18.3
2017-07-10T22:13:53.606Z,18
2017-07-10T22:24:07.427Z,17.9
2017-07-10T22:34:22.241Z,17.7
2017-07-10T22:44:37.033Z,17.4
2017-07-10T22:54:52.120Z,17.1
2017-07-10T23:05:07.693Z,17
2017-07-10T23:15:22.076Z,17
2017-07-10T23:25:36.528Z,16.9
2017-07-10T23:35:51.950Z,16.8
2017-07-10T23:46:06.816Z,16.8
2017-07-10T23:56:20.730Z,16.6
